createdAt,value
2023-04-27T00:01:34.739Z,74.02
2023-04-27T00:04:01.798Z,74.60
2023-04-27T00:06:28.409Z,75.10
2023-04-27T00:08:54.825Z,75.52
2023-04-27T00:11:21.488Z,75.93
2023-04-27T00:13:48.416Z,75.94
2023-04-27T00:16:14.809Z,75.68
2023-04-27T00:18:41.433Z,75.81
2023-04-27T00:21:09.401Z,75.63
2023-04-27T00:23:36.377Z,76.93
2023-04-27T00:26:02.886Z,76.50
2023-04-27T00:28:29.217Z,76.53
2023-04-27T00:30:58.380Z,76.78
2023-04-27T00:33:27.046Z,76.62
2023-04-27T00:35:53.362Z,77.13
2023-04-27T00:38:20.789Z,77.23
2023-04-27T00:40:47.112Z,77.10
2023-04-27T00:43:14.540Z,77.44
2023-04-27T00:45:44.098Z,76.98
2023-04-27T00:48:12.681Z,77.25
2023-04-27T00:50:40.569Z,77.72
2023-04-27T00:53:07.741Z,77.33
2023-04-27T00:55:34.163Z,77.47
2023-04-27T00:58:02.214Z,77.46
2023-04-27T01:00:28.790Z,78.73
2023-04-27T01:02:55.950Z,77.89
2023-04-27T01:05:25.338Z,78.54
2023-04-27T01:07:51.667Z,78.53
2023-04-27T01:10:19.638Z,79.04
2023-04-27T01:12:46.133Z,79.54
2023-04-27T01:15:12.545Z,79.24
2023-04-27T01:17:39.019Z,79.81
2023-04-27T01:20:07.421Z,80.26
2023-04-27T01:22:33.743Z,80.58
2023-04-27T01:25:00.107Z,80.29
2023-04-27T01:27:26.427Z,80.63
2023-04-27T01:29:52.755Z,81.26
2023-04-27T01:32:19.073Z,81.10
2023-04-27T01:34:45.407Z,81.35
2023-04-27T01:37:11.751Z,81.13
2023-04-27T01:39:38.495Z,81.28
2023-04-27T01:42:04.975Z,81.45
2023-04-27T01:44:31.527Z,81.64
2023-04-27T01:46:57.868Z,81.63
2023-04-27T01:49:24.238Z,81.59
2023-04-27T01:51:51.365Z,81.90
2023-04-27T01:54:17.685Z,82.16
2023-04-27T01:56:44.041Z,81.90
2023-04-27T01:59:10.580Z,82.40
2023-04-27T02:01:36.907Z,82.18
2023-04-27T02:04:04.418Z,82.25
2023-04-27T02:06:31.199Z,82.80
2023-04-27T02:08:57.879Z,83.24
2023-04-27T02:11:24.227Z,83.48
2023-04-27T02:13:50.753Z,83.96
2023-04-27T02:16:17.306Z,84.17
2023-04-27T02:18:44.518Z,84.58
2023-04-27T02:21:11.653Z,84.70
2023-04-27T02:23:38.023Z,84.89
2023-04-27T02:26:04.613Z,84.80
2023-04-27T02:28:31.107Z,84.98
2023-04-27T02:30:58.214Z,85.13
2023-04-27T02:33:25.036Z,85.20
2023-04-27T02:35:51.383Z,85.00
2023-04-27T02:38:17.750Z,84.99
2023-04-27T02:40:44.197Z,85.50
2023-04-27T02:43:10.510Z,85.25
2023-04-27T02:45:38.293Z,84.88
2023-04-27T02:48:05.998Z,85.03
2023-04-27T02:50:33.712Z,84.87
2023-04-27T02:53:00.271Z,85.21
2023-04-27T02:55:27.441Z,85.07
2023-04-27T02:57:53.806Z,84.92
2023-04-27T03:00:20.326Z,84.78
2023-04-27T03:02:46.752Z,85.08
2023-04-27T03:05:13.222Z,84.65
2023-04-27T03:07:39.573Z,84.92
2023-04-27T03:10:06.268Z,85.39
2023-04-27T03:12:32.643Z,85.78
2023-04-27T03:14:59.684Z,85.61
2023-04-27T03:17:26.204Z,85.51
2023-04-27T03:19:52.898Z,85.07
2023-04-27T03:22:20.107Z,85.67
2023-04-27T03:24:46.662Z,85.53
2023-04-27T03:27:12.993Z,85.31
2023-04-27T03:29:39.354Z,85.63
2023-04-27T03:32:06.367Z,86.16
2023-04-27T03:34:32.921Z,85.86
2023-04-27T03:36:59.250Z,85.99
2023-04-27T03:39:25.901Z,86.12
2023-04-27T03:41:52.213Z,85.49
2023-04-27T03:44:18.678Z,86.36
2023-04-27T03:46:45.043Z,86.57
2023-04-27T03:49:12.155Z,86.47
2023-04-27T03:51:42.217Z,86.42
2023-04-27T03:54:09.897Z,86.44
2023-04-27T03:56:36.989Z,86.67
2023-04-27T03:59:04.688Z,86.05
2023-04-27T04:01:33.903Z,86.31
2023-04-27T04:04:00.557Z,86.38
2023-04-27T04:06:27.894Z,86.77
2023-04-27T04:08:55.801Z,86.58
2023-04-27T04:11:22.414Z,86.15
2023-04-27T04:13:50.609Z,86.15
2023-04-27T04:16:17.026Z,86.20
2023-04-27T04:18:43.389Z,86.21
2023-04-27T04:21:13.111Z,85.52
2023-04-27T04:23:41.065Z,86.64
2023-04-27T04:26:08.691Z,85.74
2023-04-27T04:28:35.672Z,86.15
2023-04-27T04:31:02.708Z,86.79
2023-04-27T04:33:29.115Z,86.86
2023-04-27T04:35:55.618Z,86.42
2023-04-27T04:38:23.345Z,86.64
2023-04-27T04:40:50.488Z,86.37
2023-04-27T04:43:16.940Z,86.97
2023-04-27T04:45:43.627Z,86.75
2023-04-27T04:48:14.425Z,87.64
2023-04-27T04:50:41.951Z,87.15
2023-04-27T04:53:08.335Z,87.38
2023-04-27T04:55:34.724Z,87.72
2023-04-27T04:58:01.684Z,87.90
2023-04-27T05:00:28.140Z,87.05
2023-04-27T05:02:54.622Z,86.73
2023-04-27T05:05:21.266Z,86.43
2023-04-27T05:07:47.607Z,86.17
2023-04-27T05:10:13.966Z,86.00
2023-04-27T05:12:40.569Z,85.99
2023-04-27T05:15:07.811Z,85.80
2023-04-27T05:17:34.129Z,85.19
2023-04-27T05:20:00.830Z,84.57
2023-04-27T05:22:27.284Z,84.04
2023-04-27T05:24:53.670Z,84.21
2023-04-27T05:27:20.060Z,83.69
2023-04-27T05:29:46.464Z,83.80
2023-04-27T05:32:12.778Z,83.41
2023-04-27T05:34:39.151Z,83.00
2023-04-27T05:37:05.491Z,82.73
2023-04-27T05:39:31.884Z,82.15
2023-04-27T05:41:58.758Z,81.41
2023-04-27T05:44:28.211Z,80.86
2023-04-27T05:46:55.698Z,80.46
2023-04-27T05:49:22.255Z,79.73
2023-04-27T05:51:48.784Z,79.93
2023-04-27T05:54:15.383Z,79.37
2023-04-27T05:56:41.762Z,78.51
2023-04-27T05:59:08.137Z,78.86
2023-04-27T06:01:34.465Z,78.25
2023-04-27T06:04:01.306Z,78.23
2023-04-27T06:06:28.588Z,77.74
2023-04-27T06:08:54.898Z,76.49
2023-04-27T06:11:21.963Z,76.82
2023-04-27T06:13:48.280Z,76.65
2023-04-27T06:16:14.641Z,75.89
2023-04-27T06:18:40.974Z,74.59
2023-04-27T06:21:07.524Z,74.59
2023-04-27T06:23:33.834Z,73.40
2023-04-27T06:26:00.268Z,74.45
2023-04-27T06:28:26.694Z,72.82
2023-04-27T06:30:53.768Z,71.83
2023-04-27T06:33:20.096Z,71.28
2023-04-27T06:35:47.523Z,70.35
2023-04-27T06:38:14.074Z,67.51
2023-04-27T06:40:40.444Z,66.21
2023-04-27T06:43:06.809Z,65.79
2023-04-27T06:45:33.214Z,65.18
2023-04-27T06:47:59.601Z,65.26
2023-04-27T06:50:26.141Z,65.48
2023-04-27T06:52:52.449Z,64.51
2023-04-27T06:55:18.930Z,64.05
2023-04-27T06:57:45.513Z,63.12
2023-04-27T07:00:13.506Z,62.35
2023-04-27T07:02:40.151Z,63.14
2023-04-27T07:05:06.799Z,61.47
2023-04-27T07:07:33.125Z,60.93
2023-04-27T07:09:59.448Z,60.73
2023-04-27T07:12:25.761Z,58.58
2023-04-27T07:14:52.095Z,58.33
2023-04-27T07:17:18.448Z,58.57
2023-04-27T07:19:44.813Z,56.97
2023-04-27T07:22:11.638Z,56.39
2023-04-27T07:24:37.968Z,56.58
2023-04-27T07:27:04.349Z,55.77
2023-04-27T07:29:30.956Z,55.44
2023-04-27T07:31:57.731Z,54.75
2023-04-27T07:34:24.238Z,54.06
2023-04-27T07:36:53.944Z,53.41
2023-04-27T07:39:20.724Z,53.02
2023-04-27T07:41:48.069Z,51.50
2023-04-27T07:44:15.056Z,52.34
2023-04-27T07:46:41.398Z,50.28
2023-04-27T07:49:07.778Z,50.69
2023-04-27T07:51:34.484Z,48.75
2023-04-27T07:54:02.391Z,49.11
2023-04-27T07:56:28.732Z,50.31
2023-04-27T07:58:55.038Z,50.22
2023-04-27T08:01:21.877Z,49.94
2023-04-27T08:03:48.596Z,50.27
2023-04-27T08:06:16.254Z,49.30
2023-04-27T08:08:42.732Z,49.00
2023-04-27T08:11:12.609Z,47.08
2023-04-27T08:13:38.953Z,45.99
2023-04-27T08:16:05.924Z,46.01
2023-04-27T08:18:32.633Z,48.48
2023-04-27T08:20:59.057Z,48.17
2023-04-27T08:23:29.422Z,47.26
2023-04-27T08:25:55.812Z,45.79
2023-04-27T08:28:23.324Z,47.07
2023-04-27T08:30:49.800Z,45.89
2023-04-27T08:33:16.177Z,44.51
2023-04-27T08:35:42.562Z,44.66
2023-04-27T08:38:08.960Z,45.90
2023-04-27T08:40:35.351Z,47.22
2023-04-27T08:43:01.710Z,45.47
2023-04-27T08:45:28.806Z,45.18
2023-04-27T08:47:55.619Z,43.37
2023-04-27T08:50:24.069Z,42.63
2023-04-27T08:52:50.893Z,44.37
2023-04-27T08:55:17.370Z,41.90
2023-04-27T08:57:54.812Z,43.17
2023-04-27T09:00:21.417Z,42.89
2023-04-27T09:02:49.015Z,43.06
2023-04-27T09:05:23.470Z,44.49
2023-04-27T09:08:08.085Z,43.60
2023-04-27T09:11:03.814Z,42.11
2023-04-27T09:13:37.806Z,41.66
2023-04-27T09:16:04.659Z,43.25
2023-04-27T09:18:35.203Z,39.96
2023-04-27T09:21:01.515Z,41.38
2023-04-27T09:23:36.515Z,39.09
2023-04-27T09:26:10.724Z,40.48
2023-04-27T09:28:40.378Z,38.77
2023-04-27T09:31:09.272Z,40.67
2023-04-27T09:33:36.526Z,38.59
2023-04-27T09:36:06.985Z,38.34
2023-04-27T09:38:33.934Z,40.70
2023-04-27T09:41:01.057Z,38.93
2023-04-27T09:43:28.716Z,38.13
2023-04-27T09:45:56.125Z,37.63
2023-04-27T09:48:24.473Z,39.90
2023-04-27T09:50:52.354Z,38.78
2023-04-27T09:53:23.385Z,37.33
2023-04-27T09:56:21.710Z,36.81
2023-04-27T09:59:14.345Z,38.32
2023-04-27T10:01:49.998Z,37.54
2023-04-27T10:04:42.484Z,37.65
2023-04-27T10:07:12.756Z,35.87
2023-04-27T10:09:45.505Z,35.87
2023-04-27T10:12:28.198Z,36.75
2023-04-27T10:14:59.598Z,36.38
2023-04-27T10:17:33.216Z,35.27
2023-04-27T10:20:03.856Z,38.74
2023-04-27T10:22:41.849Z,36.38
2023-04-27T10:25:18.793Z,34.92
2023-04-27T10:27:55.113Z,35.03
2023-04-27T10:30:25.789Z,35.34
2023-04-27T10:32:54.301Z,36.23
2023-04-27T10:35:22.247Z,36.42
2023-04-27T10:37:48.856Z,34.35
2023-04-27T10:40:19.245Z,37.31
2023-04-27T10:42:49.136Z,37.19
2023-04-27T10:45:29.249Z,34.48
2023-04-27T10:48:00.548Z,32.92
2023-04-27T10:50:27.728Z,33.94
2023-04-27T10:52:54.086Z,32.98
2023-04-27T10:55:22.560Z,34.44
2023-04-27T10:57:53.982Z,33.20
2023-04-27T11:00:25.226Z,34.06
2023-04-27T11:02:53.636Z,34.74
2023-04-27T11:05:24.678Z,33.85
2023-04-27T11:07:52.406Z,35.48
2023-04-27T11:10:19.421Z,35.49
2023-04-27T11:12:46.918Z,34.11
2023-04-27T11:15:14.066Z,33.17
2023-04-27T11:17:40.988Z,32.01
2023-04-27T11:20:10.914Z,32.38
2023-04-27T11:22:45.784Z,34.29
2023-04-27T11:25:12.464Z,31.77
2023-04-27T11:27:41.606Z,32.63
2023-04-27T11:30:19.962Z,33.93
2023-04-27T11:32:46.352Z,33.03
2023-04-27T11:35:13.616Z,34.59
2023-04-27T11:37:39.944Z,34.75
2023-04-27T11:40:11.164Z,35.07
2023-04-27T11:42:37.612Z,33.54
2023-04-27T11:45:06.376Z,30.69
2023-04-27T11:47:35.172Z,33.14
2023-04-27T11:50:05.484Z,31.20
2023-04-27T11:52:33.412Z,32.65
2023-04-27T11:55:01.792Z,30.25
2023-04-27T11:57:30.445Z,27.87
2023-04-27T12:00:01.442Z,30.66
2023-04-27T12:02:31.743Z,28.71
2023-04-27T12:05:01.674Z,31.07
2023-04-27T12:07:28.186Z,29.42
2023-04-27T12:09:54.530Z,32.06
2023-04-27T12:12:23.976Z,30.28
2023-04-27T12:14:51.837Z,30.67
2023-04-27T12:17:18.790Z,31.52
2023-04-27T12:19:45.319Z,30.35
2023-04-27T12:22:11.869Z,31.33
2023-04-27T12:24:38.272Z,30.76
2023-04-27T12:27:04.990Z,30.58
2023-04-27T12:29:34.192Z,32.56
2023-04-27T12:32:00.782Z,31.86
2023-04-27T12:34:28.293Z,30.33
2023-04-27T12:36:54.662Z,31.23
2023-04-27T12:39:24.878Z,30.79
2023-04-27T12:41:51.596Z,31.33
2023-04-27T12:44:19.802Z,32.96
2023-04-27T12:46:48.088Z,31.61
2023-04-27T12:49:15.384Z,29.39
2023-04-27T12:51:42.375Z,31.05
2023-04-27T12:54:10.015Z,30.81
2023-04-27T12:56:36.457Z,31.29
2023-04-27T12:59:02.858Z,30.15
2023-04-27T13:01:29.316Z,30.89
2023-04-27T13:03:58.730Z,30.35
2023-04-27T13:06:25.437Z,30.35
2023-04-27T13:08:51.924Z,32.58
2023-04-27T13:11:18.717Z,30.62
2023-04-27T13:13:45.627Z,29.29
2023-04-27T13:16:12.373Z,30.46
2023-04-27T13:18:40.594Z,28.88
2023-04-27T13:21:08.317Z,27.99
2023-04-27T13:23:34.936Z,29.66
2023-04-27T13:26:01.384Z,28.33
2023-04-27T13:28:27.725Z,29.28
2023-04-27T13:30:54.201Z,28.26
2023-04-27T13:33:23.109Z,29.95
2023-04-27T13:35:53.560Z,28.51
2023-04-27T13:38:20.220Z,29.55
2023-04-27T13:40:46.644Z,29.16
2023-04-27T13:43:12.998Z,28.52
2023-04-27T13:45:39.701Z,28.44
2023-04-27T13:48:06.282Z,30.26
2023-04-27T13:50:33.018Z,28.73
2023-04-27T13:53:01.719Z,27.92
2023-04-27T13:55:28.625Z,28.84
2023-04-27T13:57:54.961Z,29.34
2023-04-27T14:00:21.629Z,28.42
2023-04-27T14:02:48.057Z,28.72
2023-04-27T14:05:14.589Z,28.25
2023-04-27T14:07:40.922Z,27.82
2023-04-27T14:10:07.910Z,29.69
2023-04-27T14:12:34.335Z,28.30
2023-04-27T14:15:00.681Z,29.56
2023-04-27T14:17:27.009Z,30.06
2023-04-27T14:19:53.377Z,29.02
2023-04-27T14:22:19.839Z,28.27
2023-04-27T14:24:46.441Z,28.99
2023-04-27T14:27:12.779Z,28.51
2023-04-27T14:29:39.139Z,28.04
2023-04-27T14:32:06.174Z,28.55
2023-04-27T14:34:32.587Z,29.81
2023-04-27T14:36:58.904Z,30.83
2023-04-27T14:39:27.386Z,28.41
2023-04-27T14:41:54.187Z,30.55
2023-04-27T14:44:20.689Z,30.89
2023-04-27T14:46:47.106Z,28.85
2023-04-27T14:49:13.724Z,28.66
2023-04-27T14:51:42.739Z,29.66
2023-04-27T14:54:09.822Z,29.64
2023-04-27T14:56:36.567Z,30.41
2023-04-27T14:59:03.170Z,28.40
2023-04-27T15:01:29.674Z,29.30
2023-04-27T15:03:57.788Z,28.76
2023-04-27T15:06:27.916Z,29.25
2023-04-27T15:08:55.121Z,29.55
2023-04-27T15:11:21.946Z,29.26
2023-04-27T15:13:48.455Z,28.97
2023-04-27T15:16:14.906Z,30.86
2023-04-27T15:18:42.091Z,29.97
2023-04-27T15:21:08.405Z,29.98
2023-04-27T15:23:36.936Z,29.40
2023-04-27T15:26:03.327Z,29.80
2023-04-27T15:28:29.699Z,28.74
2023-04-27T15:30:56.155Z,30.58
2023-04-27T15:33:22.565Z,30.50
2023-04-27T15:35:49.929Z,30.19
2023-04-27T15:38:17.763Z,31.02
2023-04-27T15:40:44.192Z,30.97
2023-04-27T15:43:10.582Z,32.12
2023-04-27T15:45:37.048Z,30.15
2023-04-27T15:48:03.794Z,30.07
2023-04-27T15:50:30.385Z,30.90
2023-04-27T15:52:57.055Z,30.50
2023-04-27T15:55:23.567Z,31.74
2023-04-27T15:57:50.854Z,31.72
2023-04-27T16:00:18.777Z,32.11
2023-04-27T16:02:46.195Z,32.18
2023-04-27T16:05:13.012Z,32.35
2023-04-27T16:07:39.938Z,32.46
2023-04-27T16:10:07.258Z,32.63
2023-04-27T16:12:33.696Z,32.54
2023-04-27T16:15:00.752Z,33.19
2023-04-27T16:17:28.816Z,33.01
2023-04-27T16:19:55.199Z,32.12
2023-04-27T16:22:22.109Z,33.39
2023-04-27T16:24:48.490Z,33.48
2023-04-27T16:27:17.087Z,33.31
2023-04-27T16:29:43.610Z,33.41
2023-04-27T16:32:10.939Z,33.44
2023-04-27T16:34:38.035Z,33.37
2023-04-27T16:37:04.718Z,33.98
2023-04-27T16:39:31.097Z,34.47
2023-04-27T16:41:57.411Z,35.55
2023-04-27T16:44:23.797Z,35.03
2023-04-27T16:46:52.985Z,35.82
2023-04-27T16:49:19.365Z,35.48
2023-04-27T16:51:45.709Z,36.25
2023-04-27T16:54:12.692Z,35.47
2023-04-27T16:56:39.071Z,36.39
2023-04-27T16:59:05.418Z,36.17
2023-04-27T17:01:31.951Z,36.39
2023-04-27T17:04:01.960Z,35.44
2023-04-27T17:06:29.809Z,35.66
2023-04-27T17:08:56.925Z,36.39
2023-04-27T17:11:23.698Z,37.12
2023-04-27T17:13:50.509Z,36.25
2023-04-27T17:16:17.934Z,37.83
2023-04-27T17:18:45.647Z,37.28
2023-04-27T17:21:12.325Z,37.60
2023-04-27T17:23:41.145Z,38.40
2023-04-27T17:26:07.789Z,39.04
2023-04-27T17:28:35.147Z,39.11
2023-04-27T17:31:01.808Z,38.86
2023-04-27T17:33:28.209Z,38.78
2023-04-27T17:35:54.852Z,39.16
2023-04-27T17:38:21.232Z,38.69
2023-04-27T17:40:47.553Z,38.86
2023-04-27T17:43:13.946Z,39.17
2023-04-27T17:45:40.406Z,39.24
2023-04-27T17:48:07.292Z,39.29
2023-04-27T17:50:35.841Z,39.77
2023-04-27T17:53:02.174Z,39.12
2023-04-27T17:55:29.065Z,39.57
2023-04-27T17:57:55.569Z,40.02
2023-04-27T18:00:22.236Z,39.88
2023-04-27T18:02:49.596Z,39.09
2023-04-27T18:05:17.016Z,40.07
2023-04-27T18:07:43.465Z,40.52
2023-04-27T18:10:09.956Z,40.71
2023-04-27T18:12:36.436Z,39.99
2023-04-27T18:15:05.586Z,40.38
2023-04-27T18:17:33.392Z,40.16
2023-04-27T18:20:08.077Z,40.47
2023-04-27T18:22:39.213Z,40.47
2023-04-27T18:25:06.230Z,40.36
2023-04-27T18:27:32.905Z,40.24
2023-04-27T18:29:59.486Z,40.55
2023-04-27T18:32:25.919Z,40.46
2023-04-27T18:34:52.309Z,41.66
2023-04-27T18:37:18.751Z,41.09
2023-04-27T18:39:45.186Z,41.73
2023-04-27T18:42:11.651Z,41.83
2023-04-27T18:44:38.034Z,41.98
2023-04-27T18:47:04.575Z,42.17
2023-04-27T18:49:31.043Z,41.96
2023-04-27T18:51:57.431Z,41.78
2023-04-27T18:54:23.808Z,42.39
2023-04-27T18:56:52.934Z,42.25
2023-04-27T18:59:19.993Z,42.99
2023-04-27T19:01:46.442Z,43.14
2023-04-27T19:04:13.286Z,42.45
2023-04-27T19:06:39.788Z,43.08
2023-04-27T19:09:06.221Z,42.84
2023-04-27T19:11:32.599Z,42.91
2023-04-27T19:13:59.102Z,43.45
2023-04-27T19:16:25.670Z,43.56
2023-04-27T19:18:52.099Z,43.30
2023-04-27T19:21:18.524Z,43.83
2023-04-27T19:23:45.349Z,43.83
2023-04-27T19:26:13.942Z,43.69
2023-04-27T19:28:40.835Z,43.34
2023-04-27T19:31:07.521Z,43.82
2023-04-27T19:33:33.951Z,44.36
2023-04-27T19:36:00.498Z,44.38
2023-04-27T19:38:26.960Z,44.07
2023-04-27T19:40:53.447Z,44.01
2023-04-27T19:43:19.815Z,44.98
2023-04-27T19:45:48.699Z,44.46
2023-04-27T19:48:15.534Z,44.67
2023-04-27T19:50:42.276Z,44.67
2023-04-27T19:53:08.811Z,44.23
2023-04-27T19:55:35.192Z,44.84
2023-04-27T19:58:01.525Z,44.38
2023-04-27T20:00:28.024Z,44.92
2023-04-27T20:02:54.628Z,45.01
2023-04-27T20:05:21.423Z,44.59
2023-04-27T20:07:49.916Z,45.05
2023-04-27T20:10:16.600Z,44.97
2023-04-27T20:12:55.406Z,44.99
2023-04-27T20:15:23.082Z,45.20
2023-04-27T20:17:49.431Z,45.46
2023-04-27T20:20:16.069Z,45.53
2023-04-27T20:22:42.662Z,45.54
2023-04-27T20:25:09.425Z,46.07
2023-04-27T20:27:36.098Z,46.52
2023-04-27T20:30:02.567Z,46.51
2023-04-27T20:32:29.053Z,46.51
2023-04-27T20:34:55.544Z,46.26
2023-04-27T20:37:23.024Z,45.91
2023-04-27T20:39:49.479Z,46.36
2023-04-27T20:42:15.983Z,46.65
2023-04-27T20:44:42.387Z,46.51
2023-04-27T20:47:08.736Z,46.32
2023-04-27T20:49:35.767Z,45.26
2023-04-27T20:52:02.959Z,46.14
2023-04-27T20:54:32.575Z,46.39
2023-04-27T20:57:01.362Z,46.60
2023-04-27T20:59:27.746Z,46.35
2023-04-27T21:01:54.088Z,46.65
2023-04-27T21:04:20.961Z,47.32
2023-04-27T21:06:47.552Z,47.07
2023-04-27T21:09:13.909Z,47.05
2023-04-27T21:11:40.289Z,47.26
2023-04-27T21:14:06.679Z,47.26
2023-04-27T21:16:33.055Z,47.34
2023-04-27T21:18:59.468Z,47.46
2023-04-27T21:21:26.400Z,47.63
2023-04-27T21:24:04.124Z,48.00
2023-04-27T21:26:33.496Z,47.53
2023-04-27T21:29:00.042Z,47.96
2023-04-27T21:31:29.290Z,48.11
2023-04-27T21:33:55.754Z,48.34
2023-04-27T21:36:22.109Z,48.88
2023-04-27T21:38:48.513Z,48.52
2023-04-27T21:41:16.495Z,48.89
2023-04-27T21:43:43.322Z,48.54
2023-04-27T21:46:09.688Z,48.85
2023-04-27T21:48:36.241Z,48.89
2023-04-27T21:51:03.145Z,48.97
2023-04-27T21:53:30.484Z,48.97
2023-04-27T21:55:57.180Z,49.64
2023-04-27T21:58:24.178Z,49.32
2023-04-27T22:00:50.779Z,49.69
2023-04-27T22:03:17.604Z,49.89
2023-04-27T22:05:45.155Z,50.23
2023-04-27T22:08:12.038Z,50.46
2023-04-27T22:10:38.456Z,50.18
2023-04-27T22:13:17.602Z,50.59
2023-04-27T22:15:45.978Z,50.58
2023-04-27T22:18:14.150Z,50.79
2023-04-27T22:20:40.664Z,50.58
2023-04-27T22:23:07.491Z,50.68
2023-04-27T22:25:33.960Z,51.20
2023-04-27T22:28:01.455Z,51.50
2023-04-27T22:30:28.913Z,51.36
2023-04-27T22:32:56.090Z,51.47
2023-04-27T22:35:26.963Z,51.69
2023-04-27T22:37:58.860Z,51.80
2023-04-27T22:40:26.064Z,51.72
2023-04-27T22:42:53.417Z,52.20
2023-04-27T22:45:19.818Z,51.80
2023-04-27T22:47:46.376Z,51.63
2023-04-27T22:50:13.404Z,51.72
2023-04-27T22:52:42.885Z,52.14
2023-04-27T22:55:10.731Z,52.11
2023-04-27T22:57:38.110Z,51.88
2023-04-27T23:00:05.354Z,52.46
2023-04-27T23:02:32.001Z,51.91
2023-04-27T23:05:01.474Z,52.52
2023-04-27T23:07:28.342Z,52.77
2023-04-27T23:09:54.776Z,52.73
2023-04-27T23:12:21.934Z,52.84
2023-04-27T23:14:48.290Z,52.67
2023-04-27T23:17:17.356Z,53.03
2023-04-27T23:19:43.705Z,52.75
2023-04-27T23:22:10.047Z,53.15
2023-04-27T23:24:36.413Z,53.62
2023-04-27T23:27:02.858Z,52.66
2023-04-27T23:29:30.760Z,53.57
2023-04-27T23:32:04.216Z,53.40
2023-04-27T23:34:34.531Z,53.39
2023-04-27T23:37:01.009Z,53.43
2023-04-27T23:39:28.446Z,53.72
2023-04-27T23:41:54.815Z,53.55
2023-04-27T23:44:21.334Z,53.03
2023-04-27T23:46:47.702Z,53.44
2023-04-27T23:49:14.108Z,53.78
2023-04-27T23:51:40.598Z,54.42
2023-04-27T23:54:07.182Z,53.62
2023-04-27T23:56:33.525Z,54.02
2023-04-27T23:58:59.900Z,54.46
